createdAt,value
2019-01-17T00:00:34.918Z,10.03
2019-01-17T00:05:49.695Z,10.73
2019-01-17T00:11:16.001Z,10.10
2019-01-17T00:16:51.304Z,10.00
2019-01-17T00:22:15.309Z,11.27
2019-01-17T00:27:57.012Z,10.67
2019-01-17T00:33:19.548Z,11.00
2019-01-17T00:38:36.124Z,10.97
2019-01-17T00:43:57.945Z,10.97
2019-01-17T00:49:11.782Z,9.37
2019-01-17T00:54:41.038Z,10.17
2019-01-17T01:00:04.518Z,10.10
2019-01-17T01:05:28.108Z,10.20
2019-01-17T01:10:54.409Z,11.10
2019-01-17T01:16:29.518Z,10.10
2019-01-17T01:22:10.940Z,9.40
2019-01-17T01:27:41.493Z,10.40
2019-01-17T01:33:09.813Z,10.60
2019-01-17T01:38:31.660Z,12.20
2019-01-17T01:43:47.367Z,10.83
2019-01-17T01:49:12.231Z,10.60
2019-01-17T01:54:22.006Z,6.83
2019-01-17T01:59:23.149Z,5.10
2019-01-17T02:04:27.674Z,5.43
2019-01-17T02:09:32.311Z,6.07
2019-01-17T02:14:37.158Z,4.70
2019-01-17T02:19:41.934Z,4.60
2019-01-17T02:24:46.557Z,4.17
2019-01-17T02:29:51.145Z,4.30
2019-01-17T02:34:55.703Z,3.93
2019-01-17T02:40:00.268Z,4.77
2019-01-17T02:45:05.246Z,3.47
2019-01-17T02:50:10.519Z,4.97
2019-01-17T02:55:15.092Z,5.40
2019-01-17T03:00:19.685Z,5.47
2019-01-17T03:05:24.280Z,4.80
2019-01-17T03:10:28.957Z,4.43
2019-01-17T03:15:33.498Z,4.67
2019-01-17T03:20:38.066Z,5.30
2019-01-17T03:25:42.613Z,6.33
2019-01-17T03:30:47.135Z,6.17
2019-01-17T03:35:51.918Z,7.77
2019-01-17T03:40:56.529Z,6.57
2019-01-17T03:46:01.038Z,6.50
2019-01-17T03:51:05.759Z,7.83
2019-01-17T03:56:10.377Z,9.33
2019-01-17T04:01:14.969Z,7.67
2019-01-17T04:06:19.458Z,7.53
2019-01-17T04:11:24.042Z,9.43
2019-01-17T04:16:28.653Z,9.37
2019-01-17T04:21:33.161Z,10.23
2019-01-17T04:26:37.694Z,9.70
2019-01-17T04:31:42.273Z,9.43
2019-01-17T04:36:46.783Z,9.27
2019-01-17T04:41:51.859Z,9.50
2019-01-17T04:46:56.454Z,9.67
2019-01-17T04:52:01.042Z,9.67
2019-01-17T04:57:05.700Z,8.40
2019-01-17T05:02:10.251Z,8.43
2019-01-17T05:07:14.846Z,10.83
2019-01-17T05:12:19.490Z,9.88
2019-01-17T05:17:24.147Z,7.07
2019-01-17T05:22:28.748Z,6.43
2019-01-17T05:27:33.328Z,7.40
2019-01-17T05:32:37.918Z,7.37
2019-01-17T05:37:42.917Z,7.40
2019-01-17T05:42:47.422Z,6.60
2019-01-17T05:47:51.995Z,7.10
2019-01-17T05:52:56.567Z,6.67
2019-01-17T05:58:01.050Z,7.63
2019-01-17T06:03:05.697Z,7.93
2019-01-17T06:08:10.262Z,7.93
2019-01-17T06:13:15.047Z,8.63
2019-01-17T06:18:19.661Z,7.80
2019-01-17T06:23:24.244Z,8.07
2019-01-17T06:28:28.860Z,7.67
2019-01-17T06:33:33.456Z,6.97
2019-01-17T06:38:37.941Z,6.77
2019-01-17T06:43:42.512Z,6.10
2019-01-17T06:48:47.090Z,5.80
2019-01-17T06:53:51.667Z,4.53
2019-01-17T06:58:56.255Z,4.33
2019-01-17T07:04:00.874Z,5.77
2019-01-17T07:09:08.634Z,6.20
2019-01-17T07:14:13.268Z,7.47
2019-01-17T07:19:17.826Z,6.70
2019-01-17T07:24:22.324Z,4.23
2019-01-17T07:29:26.888Z,4.30
2019-01-17T07:34:31.426Z,5.07
2019-01-17T07:39:35.924Z,3.47
2019-01-17T07:44:40.436Z,4.10
2019-01-17T07:49:45.066Z,4.40
2019-01-17T07:54:51.365Z,3.10
2019-01-17T07:59:56.010Z,3.43
2019-01-17T08:05:00.990Z,2.97
2019-01-17T08:10:07.343Z,3.20
2019-01-17T08:15:12.506Z,2.87
2019-01-17T08:20:22.331Z,2.73
2019-01-17T08:25:26.849Z,2.77
2019-01-17T08:30:31.451Z,10.30
2019-01-17T08:35:35.995Z,4.20
2019-01-17T08:40:40.522Z,3.50
2019-01-17T08:45:45.078Z,2.92
2019-01-17T08:50:49.916Z,2.73
2019-01-17T08:56:00.603Z,3.33
2019-01-17T09:01:00.704Z,2.50
2019-01-17T09:06:05.498Z,1.93
2019-01-17T09:11:10.069Z,1.97
2019-01-17T09:16:14.692Z,2.33
2019-01-17T09:21:19.284Z,2.13
2019-01-17T09:26:23.826Z,1.60
2019-01-17T09:31:29.466Z,1.37
2019-01-17T09:36:34.086Z,1.73
2019-01-17T09:41:38.754Z,1.37
2019-01-17T09:46:43.307Z,1.03
2019-01-17T09:51:47.937Z,1.30
2019-01-17T09:56:52.555Z,1.20
2019-01-17T10:01:57.124Z,1.17
2019-01-17T10:07:01.731Z,1.13
2019-01-17T10:12:06.337Z,1.37
2019-01-17T10:17:39.486Z,1.33
2019-01-17T10:23:32.617Z,1.30
2019-01-17T10:29:07.875Z,0.90
2019-01-17T10:34:59.316Z,1.33
2019-01-17T10:41:14.974Z,1.30
2019-01-17T10:46:59.040Z,1.53
2019-01-17T10:52:51.504Z,1.60
2019-01-17T10:58:18.241Z,1.27
2019-01-17T11:03:54.799Z,1.40
2019-01-17T11:09:29.158Z,1.40
2019-01-17T11:14:55.455Z,1.20
2019-01-17T11:20:28.407Z,0.80
2019-01-17T11:25:48.875Z,1.80
2019-01-17T11:31:25.162Z,1.03
2019-01-17T11:37:16.389Z,1.10
2019-01-17T11:43:07.869Z,1.30
2019-01-17T11:48:31.935Z,1.80
2019-01-17T11:54:17.273Z,1.90
2019-01-17T12:00:06.052Z,1.80
2019-01-17T12:05:10.627Z,1.97
2019-01-17T12:10:15.248Z,1.70
2019-01-17T12:15:19.809Z,1.50
2019-01-17T12:20:24.374Z,1.93
2019-01-17T12:25:28.962Z,1.73
2019-01-17T12:30:33.643Z,1.30
2019-01-17T12:35:38.252Z,2.10
2019-01-17T12:40:42.870Z,1.20
2019-01-17T12:45:47.435Z,1.67
2019-01-17T12:50:52.033Z,2.00
2019-01-17T12:55:56.615Z,1.43
2019-01-17T13:01:01.197Z,1.90
2019-01-17T13:06:05.929Z,2.30
2019-01-17T13:11:10.522Z,3.20
2019-01-17T13:16:15.173Z,1.70
2019-01-17T13:21:19.805Z,1.70
2019-01-17T13:26:25.569Z,2.07
2019-01-17T13:31:30.197Z,2.93
2019-01-17T13:36:40.323Z,3.50
2019-01-17T13:41:41.218Z,1.67
2019-01-17T13:46:45.848Z,1.63
2019-01-17T13:51:50.460Z,2.00
2019-01-17T13:56:55.966Z,2.53
2019-01-17T14:02:00.554Z,2.73
2019-01-17T14:07:05.181Z,2.10
2019-01-17T14:12:09.749Z,2.43
2019-01-17T14:17:14.258Z,1.90
2019-01-17T14:22:18.873Z,2.03
2019-01-17T14:27:23.391Z,1.47
2019-01-17T14:32:28.003Z,1.80
2019-01-17T14:37:32.612Z,1.63
2019-01-17T14:42:37.389Z,1.87
2019-01-17T14:47:42.350Z,2.20
2019-01-17T14:52:47.493Z,2.00
2019-01-17T14:57:52.168Z,2.30
2019-01-17T15:02:56.790Z,1.70
2019-01-17T15:08:01.687Z,1.97
2019-01-17T15:13:06.430Z,1.77
2019-01-17T15:18:11.035Z,1.80
2019-01-17T15:23:15.601Z,1.30
2019-01-17T15:28:20.106Z,1.07
2019-01-17T15:33:24.627Z,1.67
2019-01-17T15:38:29.131Z,1.93
2019-01-17T15:43:33.706Z,2.00
2019-01-17T15:48:38.202Z,2.03
2019-01-17T15:53:42.810Z,2.43
2019-01-17T15:58:47.346Z,2.00
2019-01-17T16:03:51.928Z,2.33
2019-01-17T16:08:56.469Z,2.10
2019-01-17T16:14:01.101Z,1.80
2019-01-17T16:19:05.729Z,2.27
2019-01-17T16:24:10.327Z,2.10
2019-01-17T16:29:15.007Z,2.63
2019-01-17T16:34:19.756Z,2.30
2019-01-17T16:39:24.333Z,2.30
2019-01-17T16:44:28.922Z,4.17
2019-01-17T16:49:33.549Z,2.60
2019-01-17T16:54:38.157Z,3.20
2019-01-17T16:59:42.741Z,3.20
2019-01-17T17:04:47.274Z,3.87
2019-01-17T17:09:51.963Z,4.20
2019-01-17T17:14:56.559Z,4.92
2019-01-17T17:20:01.181Z,2.80
2019-01-17T17:25:06.463Z,2.80
2019-01-17T17:30:16.674Z,4.22
2019-01-17T17:35:21.339Z,4.67
2019-01-17T17:40:28.153Z,3.60
2019-01-17T17:45:34.231Z,4.10
2019-01-17T17:50:38.826Z,5.17
2019-01-17T17:55:43.515Z,7.70
2019-01-17T18:01:00.402Z,5.67
2019-01-17T18:06:05.053Z,6.78
2019-01-17T18:11:09.662Z,4.47
2019-01-17T18:16:14.308Z,5.10
2019-01-17T18:21:18.908Z,5.20
2019-01-17T18:26:23.524Z,5.40
2019-01-17T18:31:28.121Z,6.63
2019-01-17T18:36:32.789Z,5.62
2019-01-17T18:41:37.395Z,4.13
2019-01-17T18:46:41.959Z,4.30
2019-01-17T18:51:46.575Z,3.70
2019-01-17T18:56:51.182Z,4.43
2019-01-17T19:01:55.925Z,4.87
2019-01-17T19:07:00.582Z,6.10
2019-01-17T19:12:05.285Z,5.80
2019-01-17T19:17:09.795Z,4.17
2019-01-17T19:22:14.434Z,4.57
2019-01-17T19:27:18.948Z,4.77
2019-01-17T19:32:23.561Z,3.90
2019-01-17T19:37:28.214Z,5.20
2019-01-17T19:42:32.861Z,5.50
2019-01-17T19:47:37.443Z,6.60
2019-01-17T19:52:42.150Z,5.57
2019-01-17T19:57:46.782Z,6.50
2019-01-17T20:02:51.613Z,6.57
2019-01-17T20:07:56.234Z,6.00
2019-01-17T20:13:00.929Z,6.20
2019-01-17T20:18:05.953Z,5.57
2019-01-17T20:23:10.483Z,7.20
2019-01-17T20:28:15.027Z,5.73
2019-01-17T20:33:19.543Z,5.80
2019-01-17T20:38:24.235Z,7.35
2019-01-17T20:43:28.814Z,7.73
2019-01-17T20:48:33.404Z,7.90
2019-01-17T20:53:38.002Z,7.17
2019-01-17T20:58:42.675Z,7.13
2019-01-17T21:03:47.377Z,7.73
2019-01-17T21:08:51.984Z,7.43
2019-01-17T21:13:56.671Z,8.60
2019-01-17T21:19:01.313Z,8.30
2019-01-17T21:24:06.223Z,8.40
2019-01-17T21:29:10.949Z,8.10
2019-01-17T21:34:15.601Z,9.43
2019-01-17T21:39:20.251Z,10.07
2019-01-17T21:44:24.840Z,13.03
2019-01-17T21:49:29.511Z,9.67
2019-01-17T21:54:34.079Z,9.80
2019-01-17T21:59:38.713Z,9.53
2019-01-17T22:04:43.345Z,9.13
2019-01-17T22:09:47.986Z,9.03
2019-01-17T22:14:52.660Z,12.27
2019-01-17T22:19:57.263Z,8.10
2019-01-17T22:25:02.741Z,8.33
2019-01-17T22:30:11.650Z,7.83
2019-01-17T22:35:16.685Z,7.73
2019-01-17T22:40:21.336Z,7.77
2019-01-17T22:45:28.044Z,6.67
2019-01-17T22:50:32.707Z,7.23
2019-01-17T22:55:37.282Z,6.50
2019-01-17T23:00:54.470Z,6.63
2019-01-17T23:05:58.983Z,7.97
2019-01-17T23:11:03.690Z,7.67
2019-01-17T23:16:08.467Z,6.13
2019-01-17T23:21:13.054Z,7.33
2019-01-17T23:26:17.676Z,8.00
2019-01-17T23:31:22.211Z,7.97
2019-01-17T23:36:26.748Z,6.77
2019-01-17T23:41:31.389Z,6.67
2019-01-17T23:46:35.960Z,6.97
2019-01-17T23:51:40.480Z,7.20
2019-01-17T23:56:45.074Z,6.87
